Tequesta, FL (33469)

4:59 AM EST on December 28, 2014 (GMT -0500)
Loxahatchee River | Change Station
CLOSE
Current Station
Personal Weather Station
Location: Jupiter, FL
Elevation: 30 ft
Nearby Weather Stations
Active Advisory: Coastal Hazard Statement

Elev 30 ft 26.94 °N, 80.10 °W | Updated 2 seconds ago

Partly Cloudy
Partly Cloudy
67.9 °F
Feels Like 67.9 °F
N
0.0
Wind Variable Wind from SE
Gusts 0.0 mph

Today
High -- | Low -- °F
--% Chance of Precip.
Yesterday
High -- | Low -- °F
Precip. -- in
7:08 AM 5:35 PM
Waxing Crescent, 46% visible
Pressure 30.15 in
Visibility 0.8 miles
Clouds
Dew Point 68 °F
Humidity 100%
Rainfall 0.00 in
Snow Depth Not available.
UV Not available.
Pollen 4.90 out of 12
Air Quality Not available.
Flu Activity Not available.
METAR KSUA 280955Z AUTO 00000KT 3/4SM BR VV005 18/18 A3015 RMK AO2

More Conditions Fewer Conditions

Pressure 30.15 in
Visibility 0.8 miles
Clouds
Dew Point 68 °F
Humidity 100%
Rainfall 0.00 in
Snow Depth Not available.
UV Not available.
Pollen 4.90 out of 12
Air Quality Not available.
Flu Activity Not available.
METAR KSUA 280955Z AUTO 00000KT 3/4SM BR VV005 18/18 A3015 RMK AO2

More Conditions Fewer Conditions

10-Day Weather Forecast

Almanac

Astronomy

Dec. 28, 2014 Rise Set
Actual Time
Civil Twilight
Nautical Twilight
Astronomical Twilight
Moon
Length of Visible Light
Length of Day
Tomorrow will be .
, % of the Moon is Illuminated

Today's Extremes

State Highs State Lows

Community

WunderPhotos

Upload Photos

1,781,207 photos uploaded!

WunderBlogs® & News

Nearby

Air Quality

  Air Quality AQ Index Pollutant
Not available.

Snow Depth

Station Depth Elevation

Earthquake Activity

City Distance Mag. Time & Date
Minimum magnitude displayed is 2.5.

Coastal Water Temperatures

Place Temperature

Nearby Weather Stations